Terminal Aerodrome Forecast
Issued by NWS Goodland, KS

Home | Current Version | Previous Version | Text Only | Print | Product List | Glossary On
Versions: 1 2 3 4 5 6 7 8 9 10 11 12 13 14 15 16 17 18
000
FTUS43 KGLD 311120
TAFGLD
TAF
KGLD 311120Z 3112/0112 18010KT 5SM BR OVC003
     FM311400 VRB06KT P6SM OVC004
      TEMPO 3117/3119 OVC012
     FM311900 34006KT P6SM FEW007 OVC012
     FM010200 35009KT 6SM BR VCSH OVC008
     FM010800 35018G27KT P6SM OVC005=

USA.gov is the U.S. government's official web portal to all federal, state and local government web resources and services.